Tuesday, January 23, 2018, 6:56 PM EST
Back to Local

KBWI, Baltimore-washington International

Location: Glen Burnie, MD, United States Lat: 39.167
Local Time: 6:56 PM EST (23:56 GMT) Lon: -76.683
Time Zone: US/Eastern Elev: 147 ft

Show me the last for .
Show Decoded

2018-01-23 17:54 METAR KBWI 232254Z 29016G24KT 10SM FEW060 11/M02 A2972 RMK AO2 PK WND 29029/2223
                 SLP066 T01061022 =
2018-01-23 16:54 METAR KBWI 232154Z 28020G24KT 10SM FEW060 12/M01 A2969 RMK AO2 PK WND 28029/2112
                 SLP052 T01221006 =
2018-01-23 15:54 METAR KBWI 232054Z 30017G23KT 10SM FEW060 FEW100 14/04 A2965 RMK AO2 PK WND
                 29026/2029 SLP039 T01390039 53027 =
2018-01-23 14:54 METAR KBWI 231954Z 29017G23KT 10SM FEW023 BKN047 BKN090 BKN160 BKN250 14/07
                 A2961 RMK AO2 SLP025 T01440067 =
2018-01-23 13:54 METAR KBWI 231854Z 31011G18KT 10SM BKN045 BKN080 BKN110 BKN160 16/08 A2957 RMK
                 AO2 SLP011 T01610083 =
2018-01-23 12:54 METAR KBWI 231754Z 29014G19KT 10SM SCT038 SCT060 SCT110 SCT160 BKN250 17/09
                 A2957 RMK AO2 SLP012 60006 T01720094 10178 20106 58023 =
2018-01-23 11:54 METAR KBWI 231654Z 29010KT 10SM SCT044TCU SCT060 SCT110 BKN160 BKN250 17/12
                 A2960 RMK AO2 RAE02 SLP023 TCU SE-SW P0000 T01670122 =
2018-01-23 10:54 METAR KBWI 231554Z 30008KT 8SM -RA FEW009 SCT026CB BKN090 BKN140 BKN250 15/13
                 A2962 RMK AO2 RAB25 SLP030 CB NE-SW MOV E-SE FROPA P0004 T01500133 =
2018-01-23 10:42 METAR KBWI 231542Z 28010KT 7SM -RA FEW009 SCT019CB BKN110 15/14 A2963 RMK AO2
                 RAB25 CB NE-SW MOV E-SE FROPA P0004 T01500144 =
2018-01-23 10:35 METAR KBWI 231535Z 28010G20KT 6SM R10/5000VP6000FT -RA BR FEW009 BKN019CB BKN110
                 16/15 A2963 RMK AO2 RAB25 CB OHD MOV E P0004 T01560150 =
2018-01-23 10:28 METAR KBWI 231528Z 28015G20KT 5SM R10/5500VP6000FT -RA BR SCT009 BKN014TCU
                 BKN110 18/16 A2963 RMK AO2 RAB25 TCU OHD P0000 T01780156 =
2018-01-23 09:54 METAR KBWI 231454Z 20006KT 10SM SCT009 BKN027 BKN100 17/16 A2964 RMK AO2 SLP036
                 SCT009 V BKN 60002 T01670156 56013 =
2018-01-23 08:54 METAR KBWI 231354Z 14004KT 10SM BKN009 BKN014 OVC027 14/14 A2964 RMK AO2 SLP036
                 T01390139 =
2018-01-23 08:28 METAR KBWI 231328Z 19006KT 10SM BKN006 BKN016 OVC032 13/13 A2964 RMK AO2
                 T01330133 =
2018-01-23 08:22 METAR KBWI 231322Z VRB04KT 10SM SCT005 BKN011 BKN032 13/13 A2963 RMK AO2 SCT005
                 V BKN T01330133 =
2018-01-23 07:54 METAR KBWI 231254Z 16007KT 6SM BR BKN005 BKN016 OVC080 12/12 A2965 RMK AO2 RAE32
                 SLP040 P0002 T01170117 =
2018-01-23 06:54 METAR KBWI 231154Z 14007KT 5SM -RA BR BKN005 BKN024 OVC080 11/11 A2968 RMK AO2
                 SLP050 P0002 60004 70004 T01060106 10111 20083 56042 =
2018-01-23 06:42 METAR KBWI 231142Z 13006KT 6SM -RA BR SCT011 BKN060 OVC100 11/11 A2968 RMK AO2
                 P0002 T01110111 =
2018-01-23 06:06 METAR KBWI 231106Z COR 14006KT 7SM -RA SCT014 SCT032 OVC090 11/11 A2970 RMK AO2
                 P0001 T01110111 =
2018-01-23 05:54 METAR KBWI 231054Z 13007KT 8SM -RA BKN014 OVC032 11/11 A2971 RMK AO2
                 RAB0959E30B46 SLP061 P0000 T01110106 =
2018-01-23 04:54 METAR KBWI 230954Z 13005KT 10SM OVC010 10/09 A2976 RMK AO2 RAE45 SLP077 P0002
                 T01000094 =
2018-01-23 03:54 METAR KBWI 230854Z 00000KT 10SM -RA OVC012 09/07 A2980 RMK AO2 RAB50 SLP091
                 P0000 60000 T00890067 56035 =
2018-01-23 02:54 METAR KBWI 230754Z 09006KT 10SM BKN014 BKN034 OVC120 09/06 A2982 RMK AO2 PRESFR
                 SLP098 T00890061 =
2018-01-23 01:54 METAR KBWI 230654Z 13003KT 10SM BKN028 BKN080 OVC130 09/06 A2988 RMK AO2 SLP116
                 T00890056 =
2018-01-23 01:38 METAR KBWI 230638Z 13004KT 10SM BKN028 OVC130 09/06 A2988 RMK AO2 T00890056 =
2018-01-23 00:54 METAR KBWI 230554Z VRB03KT 10SM SCT130 BKN170 OVC220 09/06 A2991 RMK AO2 SLP126
                 T00890056 10117 20083 56032 =
2018-01-22 23:54 METAR KBWI 230454Z VRB03KT 10SM FEW100 BKN170 BKN220 08/05 A2994 RMK AO2 SLP137
                 T00830050 401670056 =
2018-01-22 22:54 METAR KBWI 230354Z 15004KT 10SM FEW100 BKN180 BKN250 09/05 A2996 RMK AO2 SLP145
                 T00940050 =
2018-01-22 21:54 METAR KBWI 230254Z 13004KT 10SM SCT200 BKN250 10/06 A3000 RMK AO2 SLP159
                 T01000056 55008 =
2018-01-22 20:54 METAR KBWI 230154Z 14004KT 10SM FEW220 BKN250 11/06 A2998 RMK AO2 SLP154
                 T01060056 =
2018-01-22 19:54 METAR KBWI 230054Z 13004KT 10SM SCT220 BKN250 11/06 A3001 RMK AO2 SLP162
                 T01060061 =

Support USWX by starting your Amazon purchase here.